sensor_id;sensor_type;location;lat;lon;timestamp;P1;durP1;ratioP1;P2;durP2;ratioP2
9884;SDS011;4981;50.966;4.842;2022-07-29T00:01:29;137.57;;;126.90;;
9884;SDS011;4981;50.966;4.842;2022-07-29T00:03:56;66.13;;;59.65;;
9884;SDS011;4981;50.966;4.842;2022-07-29T00:06:25;78.97;;;71.60;;
9884;SDS011;4981;50.966;4.842;2022-07-29T00:08:52;29.33;;;19.08;;
9884;SDS011;4981;50.966;4.842;2022-07-29T00:11:20;13.88;;;6.28;;
9884;SDS011;4981;50.966;4.842;2022-07-29T00:13:47;19.60;;;9.75;;
9884;SDS011;4981;50.966;4.842;2022-07-29T00:16:15;2.38;;;1.58;;
9884;SDS011;4981;50.966;4.842;2022-07-29T00:18:42;2.25;;;1.98;;
9884;SDS011;4981;50.966;4.842;2022-07-29T00:21:09;18.60;;;10.10;;
9884;SDS011;4981;50.966;4.842;2022-07-29T00:23:38;16.42;;;13.68;;
9884;SDS011;4981;50.966;4.842;2022-07-29T00:26:06;58.97;;;53.33;;
9884;SDS011;4981;50.966;4.842;2022-07-29T00:28:32;58.97;;;53.50;;
9884;SDS011;4981;50.966;4.842;2022-07-29T00:31:00;63.17;;;57.65;;
9884;SDS011;4981;50.966;4.842;2022-07-29T00:33:28;41.38;;;31.10;;
9884;SDS011;4981;50.966;4.842;2022-07-29T00:35:58;35.28;;;23.02;;
9884;SDS011;4981;50.966;4.842;2022-07-29T00:38:24;13.57;;;8.63;;
9884;SDS011;4981;50.966;4.842;2022-07-29T00:40:53;130.70;;;120.18;;
9884;SDS011;4981;50.966;4.842;2022-07-29T00:43:21;17.77;;;5.45;;
9884;SDS011;4981;50.966;4.842;2022-07-29T00:45:48;3.72;;;2.42;;
9884;SDS011;4981;50.966;4.842;2022-07-29T00:48:15;6.38;;;3.00;;
9884;SDS011;4981;50.966;4.842;2022-07-29T00:50:43;18.05;;;10.70;;
9884;SDS011;4981;50.966;4.842;2022-07-29T00:53:10;15.13;;;7.35;;
9884;SDS011;4981;50.966;4.842;2022-07-29T00:55:38;19.17;;;11.85;;
9884;SDS011;4981;50.966;4.842;2022-07-29T00:58:07;145.38;;;134.25;;
9884;SDS011;4981;50.966;4.842;2022-07-29T01:00:35;58.25;;;53.10;;
9884;SDS011;4981;50.966;4.842;2022-07-29T01:03:02;84.85;;;78.07;;
9884;SDS011;4981;50.966;4.842;2022-07-29T01:05:30;202.03;;;187.13;;
9884;SDS011;4981;50.966;4.842;2022-07-29T01:07:58;131.13;;;121.23;;
9884;SDS011;4981;50.966;4.842;2022-07-29T01:10:26;150.07;;;138.03;;
9884;SDS011;4981;50.966;4.842;2022-07-29T01:12:54;139.47;;;128.53;;
9884;SDS011;4981;50.966;4.842;2022-07-29T01:15:26;104.23;;;95.57;;
9884;SDS011;4981;50.966;4.842;2022-07-29T01:17:57;115.00;;;105.80;;
9884;SDS011;4981;50.966;4.842;2022-07-29T01:20:39;27.63;;;24.55;;
9884;SDS011;4981;50.966;4.842;2022-07-29T01:23:30;71.25;;;65.25;;
9884;SDS011;4981;50.966;4.842;2022-07-29T01:26:33;27.60;;;23.58;;
9884;SDS011;4981;50.966;4.842;2022-07-29T01:29:09;46.55;;;34.22;;
9884;SDS011;4981;50.966;4.842;2022-07-29T01:31:44;139.27;;;128.65;;
9884;SDS011;4981;50.966;4.842;2022-07-29T01:34:17;23.00;;;17.95;;
9884;SDS011;4981;50.966;4.842;2022-07-29T01:36:48;160.73;;;147.60;;
9884;SDS011;4981;50.966;4.842;2022-07-29T01:39:21;51.47;;;47.05;;
9884;SDS011;4981;50.966;4.842;2022-07-29T01:41:57;11.05;;;4.82;;
9884;SDS011;4981;50.966;4.842;2022-07-29T01:44:35;31.13;;;21.52;;
9884;SDS011;4981;50.966;4.842;2022-07-29T01:47:10;26.20;;;12.52;;
9884;SDS011;4981;50.966;4.842;2022-07-29T01:49:41;20.58;;;8.73;;
9884;SDS011;4981;50.966;4.842;2022-07-29T01:52:14;8.32;;;4.68;;
9884;SDS011;4981;50.966;4.842;2022-07-29T01:54:49;16.92;;;7.43;;
9884;SDS011;4981;50.966;4.842;2022-07-29T01:57:21;11.25;;;4.20;;
9884;SDS011;4981;50.966;4.842;2022-07-29T01:59:56;8.55;;;3.75;;
9884;SDS011;4981;50.966;4.842;2022-07-29T02:02:26;23.10;;;15.75;;
9884;SDS011;4981;50.966;4.842;2022-07-29T02:04:54;7.93;;;3.17;;
9884;SDS011;4981;50.966;4.842;2022-07-29T02:07:23;24.75;;;14.20;;
9884;SDS011;4981;50.966;4.842;2022-07-29T02:09:54;17.83;;;8.30;;
9884;SDS011;4981;50.966;4.842;2022-07-29T02:12:22;9.30;;;4.18;;
9884;SDS011;4981;50.966;4.842;2022-07-29T02:14:52;7.75;;;3.83;;
9884;SDS011;4981;50.966;4.842;2022-07-29T02:17:25;4.90;;;1.55;;
9884;SDS011;4981;50.966;4.842;2022-07-29T02:19:55;12.48;;;6.72;;
9884;SDS011;4981;50.966;4.842;2022-07-29T02:22:25;34.58;;;28.67;;
9884;SDS011;4981;50.966;4.842;2022-07-29T02:24:55;30.73;;;25.88;;
9884;SDS011;4981;50.966;4.842;2022-07-29T02:27:23;75.80;;;69.25;;
9884;SDS011;4981;50.966;4.842;2022-07-29T02:29:52;32.65;;;29.45;;
9884;SDS011;4981;50.966;4.842;2022-07-29T02:32:22;80.90;;;74.32;;
9884;SDS011;4981;50.966;4.842;2022-07-29T02:34:52;88.43;;;80.90;;
9884;SDS011;4981;50.966;4.842;2022-07-29T02:37:20;14.98;;;6.78;;
9884;SDS011;4981;50.966;4.842;2022-07-29T02:39:49;19.23;;;14.65;;
9884;SDS011;4981;50.966;4.842;2022-07-29T02:42:20;10.68;;;5.32;;
9884;SDS011;4981;50.966;4.842;2022-07-29T02:44:50;25.75;;;18.23;;
9884;SDS011;4981;50.966;4.842;2022-07-29T02:47:18;37.28;;;33.47;;
9884;SDS011;4981;50.966;4.842;2022-07-29T02:49:52;25.88;;;16.23;;
9884;SDS011;4981;50.966;4.842;2022-07-29T02:52:24;51.95;;;46.92;;
9884;SDS011;4981;50.966;4.842;2022-07-29T02:54:55;50.88;;;41.85;;
9884;SDS011;4981;50.966;4.842;2022-07-29T02:57:29;99.80;;;90.65;;
9884;SDS011;4981;50.966;4.842;2022-07-29T03:00:00;61.22;;;55.20;;
9884;SDS011;4981;50.966;4.842;2022-07-29T03:02:31;6.63;;;3.88;;
9884;SDS011;4981;50.966;4.842;2022-07-29T03:05:04;12.90;;;5.90;;
9884;SDS011;4981;50.966;4.842;2022-07-29T03:07:33;17.58;;;8.20;;
9884;SDS011;4981;50.966;4.842;2022-07-29T03:10:02;17.23;;;8.57;;
9884;SDS011;4981;50.966;4.842;2022-07-29T03:12:31;74.00;;;67.75;;
9884;SDS011;4981;50.966;4.842;2022-07-29T03:14:58;63.63;;;56.10;;
9884;SDS011;4981;50.966;4.842;2022-07-29T03:17:27;47.53;;;42.95;;
9884;SDS011;4981;50.966;4.842;2022-07-29T03:19:54;36.72;;;32.15;;
9884;SDS011;4981;50.966;4.842;2022-07-29T03:22:23;25.70;;;15.50;;
9884;SDS011;4981;50.966;4.842;2022-07-29T03:24:51;60.45;;;54.90;;
9884;SDS011;4981;50.966;4.842;2022-07-29T03:27:18;76.20;;;69.37;;
9884;SDS011;4981;50.966;4.842;2022-07-29T03:29:46;31.75;;;19.52;;
9884;SDS011;4981;50.966;4.842;2022-07-29T03:32:13;12.98;;;7.03;;
9884;SDS011;4981;50.966;4.842;2022-07-29T03:34:41;22.15;;;10.80;;
9884;SDS011;4981;50.966;4.842;2022-07-29T03:37:08;20.70;;;14.43;;
9884;SDS011;4981;50.966;4.842;2022-07-29T03:39:38;25.52;;;13.32;;
9884;SDS011;4981;50.966;4.842;2022-07-29T03:42:08;26.23;;;12.40;;
9884;SDS011;4981;50.966;4.842;2022-07-29T03:44:40;25.95;;;13.35;;
9884;SDS011;4981;50.966;4.842;2022-07-29T03:47:09;5.47;;;3.25;;
9884;SDS011;4981;50.966;4.842;2022-07-29T03:49:39;15.55;;;7.78;;
9884;SDS011;4981;50.966;4.842;2022-07-29T03:52:07;24.90;;;11.57;;
9884;SDS011;4981;50.966;4.842;2022-07-29T03:54:35;12.53;;;7.43;;
9884;SDS011;4981;50.966;4.842;2022-07-29T03:57:04;51.03;;;45.92;;
9884;SDS011;4981;50.966;4.842;2022-07-29T03:59:33;104.30;;;95.13;;
9884;SDS011;4981;50.966;4.842;2022-07-29T04:02:03;108.23;;;98.63;;
9884;SDS011;4981;50.966;4.842;2022-07-29T04:04:32;101.07;;;92.40;;
9884;SDS011;4981;50.966;4.842;2022-07-29T04:07:00;124.20;;;113.67;;
9884;SDS011;4981;50.966;4.842;2022-07-29T04:09:27;144.50;;;132.30;;
9884;SDS011;4981;50.966;4.842;2022-07-29T04:11:55;63.85;;;58.05;;
9884;SDS011;4981;50.966;4.842;2022-07-29T04:14:24;74.67;;;67.33;;
9884;SDS011;4981;50.966;4.842;2022-07-29T04:16:51;157.93;;;145.43;;
9884;SDS011;4981;50.966;4.842;2022-07-29T04:19:19;133.97;;;122.83;;
9884;SDS011;4981;50.966;4.842;2022-07-29T04:21:47;141.40;;;129.30;;
9884;SDS011;4981;50.966;4.842;2022-07-29T04:24:15;157.63;;;143.93;;
9884;SDS011;4981;50.966;4.842;2022-07-29T04:26:42;78.90;;;71.83;;
9884;SDS011;4981;50.966;4.842;2022-07-29T04:29:10;50.90;;;32.37;;
9884;SDS011;4981;50.966;4.842;2022-07-29T04:31:40;129.10;;;118.60;;
9884;SDS011;4981;50.966;4.842;2022-07-29T04:34:09;142.43;;;130.53;;
9884;SDS011;4981;50.966;4.842;2022-07-29T04:36:36;120.87;;;111.03;;
9884;SDS011;4981;50.966;4.842;2022-07-29T04:39:04;172.93;;;158.70;;
9884;SDS011;4981;50.966;4.842;2022-07-29T04:41:31;156.90;;;144.47;;
9884;SDS011;4981;50.966;4.842;2022-07-29T04:43:59;148.50;;;135.87;;
9884;SDS011;4981;50.966;4.842;2022-07-29T04:46:30;138.60;;;126.70;;
9884;SDS011;4981;50.966;4.842;2022-07-29T04:48:59;150.17;;;137.63;;
9884;SDS011;4981;50.966;4.842;2022-07-29T04:51:26;117.37;;;107.63;;
9884;SDS011;4981;50.966;4.842;2022-07-29T04:53:53;238.60;;;220.67;;
9884;SDS011;4981;50.966;4.842;2022-07-29T04:56:21;146.30;;;134.70;;
9884;SDS011;4981;50.966;4.842;2022-07-29T04:58:48;187.20;;;173.80;;
9884;SDS011;4981;50.966;4.842;2022-07-29T05:01:18;146.57;;;135.43;;
9884;SDS011;4981;50.966;4.842;2022-07-29T05:03:46;133.07;;;121.83;;
9884;SDS011;4981;50.966;4.842;2022-07-29T05:06:15;173.03;;;159.77;;
9884;SDS011;4981;50.966;4.842;2022-07-29T05:08:42;144.40;;;132.80;;
9884;SDS011;4981;50.966;4.842;2022-07-29T05:11:09;163.07;;;150.10;;
9884;SDS011;4981;50.966;4.842;2022-07-29T05:13:37;94.80;;;87.05;;
9884;SDS011;4981;50.966;4.842;2022-07-29T05:16:04;73.72;;;66.72;;
9884;SDS011;4981;50.966;4.842;2022-07-29T05:18:32;45.92;;;31.35;;
9884;SDS011;4981;50.966;4.842;2022-07-29T05:20:59;97.87;;;89.07;;
9884;SDS011;4981;50.966;4.842;2022-07-29T05:23:28;225.43;;;208.87;;
9884;SDS011;4981;50.966;4.842;2022-07-29T05:25:56;63.85;;;57.67;;
9884;SDS011;4981;50.966;4.842;2022-07-29T05:28:23;129.47;;;118.73;;
9884;SDS011;4981;50.966;4.842;2022-07-29T05:30:51;184.03;;;170.03;;
9884;SDS011;4981;50.966;4.842;2022-07-29T05:33:18;63.57;;;48.70;;
9884;SDS011;4981;50.966;4.842;2022-07-29T05:35:45;22.05;;;16.58;;
9884;SDS011;4981;50.966;4.842;2022-07-29T05:38:13;39.05;;;27.65;;
9884;SDS011;4981;50.966;4.842;2022-07-29T05:40:42;44.28;;;38.78;;
9884;SDS011;4981;50.966;4.842;2022-07-29T05:43:09;57.73;;;52.03;;
9884;SDS011;4981;50.966;4.842;2022-07-29T05:45:38;109.60;;;100.43;;
9884;SDS011;4981;50.966;4.842;2022-07-29T05:48:05;174.27;;;160.70;;
9884;SDS011;4981;50.966;4.842;2022-07-29T05:50:32;145.87;;;134.27;;
9884;SDS011;4981;50.966;4.842;2022-07-29T05:53:00;145.03;;;133.00;;
9884;SDS011;4981;50.966;4.842;2022-07-29T05:55:27;148.90;;;136.90;;
9884;SDS011;4981;50.966;4.842;2022-07-29T05:57:56;215.30;;;198.93;;
9884;SDS011;4981;50.966;4.842;2022-07-29T06:00:24;139.30;;;127.93;;
9884;SDS011;4981;50.966;4.842;2022-07-29T06:02:51;143.47;;;131.70;;
9884;SDS011;4981;50.966;4.842;2022-07-29T06:05:19;152.63;;;140.50;;
9884;SDS011;4981;50.966;4.842;2022-07-29T06:07:46;139.40;;;127.97;;
9884;SDS011;4981;50.966;4.842;2022-07-29T06:10:14;139.13;;;128.07;;
9884;SDS011;4981;50.966;4.842;2022-07-29T06:12:41;166.50;;;153.67;;
9884;SDS011;4981;50.966;4.842;2022-07-29T06:15:13;143.97;;;132.67;;
9884;SDS011;4981;50.966;4.842;2022-07-29T06:17:40;139.27;;;128.17;;
9884;SDS011;4981;50.966;4.842;2022-07-29T06:20:08;144.50;;;132.37;;
9884;SDS011;4981;50.966;4.842;2022-07-29T06:22:36;137.43;;;126.43;;
9884;SDS011;4981;50.966;4.842;2022-07-29T06:25:04;144.03;;;132.00;;
9884;SDS011;4981;50.966;4.842;2022-07-29T06:27:32;190.83;;;176.63;;
9884;SDS011;4981;50.966;4.842;2022-07-29T06:30:00;145.47;;;133.57;;
9884;SDS011;4981;50.966;4.842;2022-07-29T06:32:29;162.03;;;149.53;;
9884;SDS011;4981;50.966;4.842;2022-07-29T06:34:56;178.40;;;164.33;;
9884;SDS011;4981;50.966;4.842;2022-07-29T06:37:23;167.57;;;153.23;;
9884;SDS011;4981;50.966;4.842;2022-07-29T06:39:51;148.60;;;136.63;;
9884;SDS011;4981;50.966;4.842;2022-07-29T06:42:41;142.17;;;130.83;;
9884;SDS011;4981;50.966;4.842;2022-07-29T06:45:09;187.93;;;174.13;;
9884;SDS011;4981;50.966;4.842;2022-07-29T06:47:39;162.27;;;149.80;;
9884;SDS011;4981;50.966;4.842;2022-07-29T06:50:06;148.50;;;136.53;;
9884;SDS011;4981;50.966;4.842;2022-07-29T06:52:36;135.10;;;124.33;;
9884;SDS011;4981;50.966;4.842;2022-07-29T06:55:05;182.83;;;169.47;;
9884;SDS011;4981;50.966;4.842;2022-07-29T06:57:33;152.67;;;139.63;;
9884;SDS011;4981;50.966;4.842;2022-07-29T07:00:01;148.63;;;135.63;;
9884;SDS011;4981;50.966;4.842;2022-07-29T07:02:30;159.13;;;146.73;;
9884;SDS011;4981;50.966;4.842;2022-07-29T07:04:59;126.30;;;116.37;;
9884;SDS011;4981;50.966;4.842;2022-07-29T07:07:26;138.43;;;126.90;;
9884;SDS011;4981;50.966;4.842;2022-07-29T07:09:53;166.97;;;153.37;;
9884;SDS011;4981;50.966;4.842;2022-07-29T07:12:21;144.53;;;133.33;;
9884;SDS011;4981;50.966;4.842;2022-07-29T07:14:48;144.33;;;132.90;;
9884;SDS011;4981;50.966;4.842;2022-07-29T07:17:15;158.23;;;145.57;;
9884;SDS011;4981;50.966;4.842;2022-07-29T07:19:43;151.37;;;138.90;;
9884;SDS011;4981;50.966;4.842;2022-07-29T07:22:12;227.73;;;211.47;;
9884;SDS011;4981;50.966;4.842;2022-07-29T07:24:39;140.33;;;129.57;;
9884;SDS011;4981;50.966;4.842;2022-07-29T07:27:07;65.23;;;58.27;;
9884;SDS011;4981;50.966;4.842;2022-07-29T07:29:34;148.90;;;137.03;;
9884;SDS011;4981;50.966;4.842;2022-07-29T07:32:02;192.97;;;178.53;;
9884;SDS011;4981;50.966;4.842;2022-07-29T07:34:29;166.77;;;153.63;;
9884;SDS011;4981;50.966;4.842;2022-07-29T07:36:56;167.17;;;153.20;;
9884;SDS011;4981;50.966;4.842;2022-07-29T07:39:25;139.27;;;128.13;;
9884;SDS011;4981;50.966;4.842;2022-07-29T07:41:53;142.00;;;130.13;;
9884;SDS011;4981;50.966;4.842;2022-07-29T07:44:20;76.00;;;68.78;;
9884;SDS011;4981;50.966;4.842;2022-07-29T07:46:47;179.10;;;164.07;;
9884;SDS011;4981;50.966;4.842;2022-07-29T07:49:14;161.03;;;148.57;;
9884;SDS011;4981;50.966;4.842;2022-07-29T07:51:42;141.90;;;129.87;;
9884;SDS011;4981;50.966;4.842;2022-07-29T07:54:10;123.33;;;112.20;;
9884;SDS011;4981;50.966;4.842;2022-07-29T07:56:39;142.83;;;131.47;;
9884;SDS011;4981;50.966;4.842;2022-07-29T07:59:06;65.50;;;58.87;;
9884;SDS011;4981;50.966;4.842;2022-07-29T08:01:33;139.13;;;127.53;;
9884;SDS011;4981;50.966;4.842;2022-07-29T08:04:01;61.20;;;53.93;;
9884;SDS011;4981;50.966;4.842;2022-07-29T08:06:31;43.75;;;33.40;;
9884;SDS011;4981;50.966;4.842;2022-07-29T08:08:59;155.40;;;142.10;;
9884;SDS011;4981;50.966;4.842;2022-07-29T08:11:27;223.30;;;206.30;;
9884;SDS011;4981;50.966;4.842;2022-07-29T08:13:56;126.83;;;116.00;;
9884;SDS011;4981;50.966;4.842;2022-07-29T08:16:26;114.53;;;104.40;;
9884;SDS011;4981;50.966;4.842;2022-07-29T08:18:53;175.10;;;161.23;;
9884;SDS011;4981;50.966;4.842;2022-07-29T08:21:22;156.83;;;144.43;;
9884;SDS011;4981;50.966;4.842;2022-07-29T08:23:51;168.30;;;154.67;;
9884;SDS011;4981;50.966;4.842;2022-07-29T08:26:39;129.63;;;119.47;;
9884;SDS011;4981;50.966;4.842;2022-07-29T08:29:08;230.67;;;214.00;;
9884;SDS011;4981;50.966;4.842;2022-07-29T08:31:36;110.50;;;101.30;;
9884;SDS011;4981;50.966;4.842;2022-07-29T08:34:04;80.43;;;73.30;;
9884;SDS011;4981;50.966;4.842;2022-07-29T08:36:32;31.00;;;14.90;;
9884;SDS011;4981;50.966;4.842;2022-07-29T08:39:00;89.97;;;81.53;;
9884;SDS011;4981;50.966;4.842;2022-07-29T08:41:29;56.47;;;50.05;;
9884;SDS011;4981;50.966;4.842;2022-07-29T08:43:56;37.28;;;22.90;;
9884;SDS011;4981;50.966;4.842;2022-07-29T08:46:25;123.55;;;112.97;;
9884;SDS011;4981;50.966;4.842;2022-07-29T08:48:53;30.45;;;14.95;;
9884;SDS011;4981;50.966;4.842;2022-07-29T08:51:22;19.30;;;9.18;;
9884;SDS011;4981;50.966;4.842;2022-07-29T08:53:51;12.77;;;8.43;;
9884;SDS011;4981;50.966;4.842;2022-07-29T08:56:21;7.80;;;5.38;;
9884;SDS011;4981;50.966;4.842;2022-07-29T08:58:49;9.48;;;5.82;;
9884;SDS011;4981;50.966;4.842;2022-07-29T09:01:17;13.73;;;7.45;;
9884;SDS011;4981;50.966;4.842;2022-07-29T09:03:50;16.30;;;9.35;;
9884;SDS011;4981;50.966;4.842;2022-07-29T09:06:22;13.63;;;7.70;;
9884;SDS011;4981;50.966;4.842;2022-07-29T09:08:53;15.05;;;7.03;;
9884;SDS011;4981;50.966;4.842;2022-07-29T09:11:21;8.02;;;5.53;;
9884;SDS011;4981;50.966;4.842;2022-07-29T09:13:48;6.93;;;5.22;;
9884;SDS011;4981;50.966;4.842;2022-07-29T09:16:16;29.42;;;16.45;;
9884;SDS011;4981;50.966;4.842;2022-07-29T09:18:44;13.63;;;8.48;;
9884;SDS011;4981;50.966;4.842;2022-07-29T09:21:14;5.32;;;4.38;;
9884;SDS011;4981;50.966;4.842;2022-07-29T09:24:01;5.82;;;4.38;;
9884;SDS011;4981;50.966;4.842;2022-07-29T09:26:32;10.82;;;6.22;;
9884;SDS011;4981;50.966;4.842;2022-07-29T09:29:01;10.52;;;6.65;;
9884;SDS011;4981;50.966;4.842;2022-07-29T09:31:36;6.47;;;5.03;;
9884;SDS011;4981;50.966;4.842;2022-07-29T09:34:08;1.48;;;1.25;;
9884;SDS011;4981;50.966;4.842;2022-07-29T09:36:41;2.10;;;1.60;;
9884;SDS011;4981;50.966;4.842;2022-07-29T09:39:09;4.72;;;3.15;;
9884;SDS011;4981;50.966;4.842;2022-07-29T09:41:44;7.35;;;4.80;;
9884;SDS011;4981;50.966;4.842;2022-07-29T09:44:13;41.47;;;21.23;;
9884;SDS011;4981;50.966;4.842;2022-07-29T09:46:51;15.82;;;7.85;;
9884;SDS011;4981;50.966;4.842;2022-07-29T09:49:31;34.70;;;19.40;;
9884;SDS011;4981;50.966;4.842;2022-07-29T09:52:08;32.92;;;25.23;;
9884;SDS011;4981;50.966;4.842;2022-07-29T09:54:36;27.52;;;17.27;;
9884;SDS011;4981;50.966;4.842;2022-07-29T09:57:04;29.30;;;15.73;;
9884;SDS011;4981;50.966;4.842;2022-07-29T09:59:33;18.30;;;10.23;;
9884;SDS011;4981;50.966;4.842;2022-07-29T10:02:01;24.45;;;12.50;;
9884;SDS011;4981;50.966;4.842;2022-07-29T10:04:38;29.13;;;20.05;;
9884;SDS011;4981;50.966;4.842;2022-07-29T10:07:08;80.85;;;73.85;;
9884;SDS011;4981;50.966;4.842;2022-07-29T10:09:36;68.45;;;61.60;;
9884;SDS011;4981;50.966;4.842;2022-07-29T10:12:07;116.63;;;106.85;;
9884;SDS011;4981;50.966;4.842;2022-07-29T10:14:39;136.85;;;125.82;;
9884;SDS011;4981;50.966;4.842;2022-07-29T10:17:08;146.40;;;134.80;;
9884;SDS011;4981;50.966;4.842;2022-07-29T10:19:36;133.23;;;122.65;;
9884;SDS011;4981;50.966;4.842;2022-07-29T10:22:05;139.13;;;128.47;;
9884;SDS011;4981;50.966;4.842;2022-07-29T10:24:36;159.07;;;146.93;;
9884;SDS011;4981;50.966;4.842;2022-07-29T10:27:05;170.57;;;157.67;;
9884;SDS011;4981;50.966;4.842;2022-07-29T10:29:33;172.13;;;158.67;;
9884;SDS011;4981;50.966;4.842;2022-07-29T10:32:09;147.07;;;135.02;;
9884;SDS011;4981;50.966;4.842;2022-07-29T10:35:11;160.60;;;147.83;;
9884;SDS011;4981;50.966;4.842;2022-07-29T10:38:04;158.53;;;145.87;;
9884;SDS011;4981;50.966;4.842;2022-07-29T10:40:44;175.38;;;161.65;;
9884;SDS011;4981;50.966;4.842;2022-07-29T10:43:36;80.72;;;74.13;;
9884;SDS011;4981;50.966;4.842;2022-07-29T10:46:08;137.35;;;126.22;;
9884;SDS011;4981;50.966;4.842;2022-07-29T10:54:43;140.47;;;129.37;;
9884;SDS011;4981;50.966;4.842;2022-07-29T10:57:16;201.03;;;186.80;;
9884;SDS011;4981;50.966;4.842;2022-07-29T10:59:46;137.70;;;126.87;;
9884;SDS011;4981;50.966;4.842;2022-07-29T11:05:17;152.88;;;141.10;;
9884;SDS011;4981;50.966;4.842;2022-07-29T11:10:47;109.65;;;101.15;;
9884;SDS011;4981;50.966;4.842;2022-07-29T11:16:15;199.38;;;185.18;;
9884;SDS011;4981;50.966;4.842;2022-07-29T11:21:50;38.92;;;35.33;;
9884;SDS011;4981;50.966;4.842;2022-07-29T11:24:18;6.80;;;4.05;;
9884;SDS011;4981;50.966;4.842;2022-07-29T11:32:35;11.48;;;6.90;;
9884;SDS011;4981;50.966;4.842;2022-07-29T11:35:14;10.50;;;3.70;;
9884;SDS011;4981;50.966;4.842;2022-07-29T11:37:45;7.10;;;3.95;;
9884;SDS011;4981;50.966;4.842;2022-07-29T11:40:14;13.60;;;7.22;;
9884;SDS011;4981;50.966;4.842;2022-07-29T11:42:47;13.40;;;6.95;;
9884;SDS011;4981;50.966;4.842;2022-07-29T11:48:16;73.18;;;67.15;;
9884;SDS011;4981;50.966;4.842;2022-07-29T11:50:44;87.13;;;80.22;;
9884;SDS011;4981;50.966;4.842;2022-07-29T11:53:12;20.85;;;13.00;;
9884;SDS011;4981;50.966;4.842;2022-07-29T11:55:41;149.95;;;137.65;;
9884;SDS011;4981;50.966;4.842;2022-07-29T11:58:09;133.57;;;123.13;;
9884;SDS011;4981;50.966;4.842;2022-07-29T12:00:37;60.67;;;55.25;;
9884;SDS011;4981;50.966;4.842;2022-07-29T12:03:08;74.80;;;68.25;;
9884;SDS011;4981;50.966;4.842;2022-07-29T12:05:38;196.98;;;182.73;;
9884;SDS011;4981;50.966;4.842;2022-07-29T12:08:08;102.97;;;94.80;;
9884;SDS011;4981;50.966;4.842;2022-07-29T12:10:41;148.75;;;137.10;;
9884;SDS011;4981;50.966;4.842;2022-07-29T12:13:11;170.48;;;157.85;;
9884;SDS011;4981;50.966;4.842;2022-07-29T12:15:39;140.27;;;129.70;;
9884;SDS011;4981;50.966;4.842;2022-07-29T12:20:56;145.38;;;134.13;;
9884;SDS011;4981;50.966;4.842;2022-07-29T12:23:24;148.07;;;137.05;;
9884;SDS011;4981;50.966;4.842;2022-07-29T12:25:52;142.57;;;131.93;;
9884;SDS011;4981;50.966;4.842;2022-07-29T12:28:19;82.55;;;76.05;;
9884;SDS011;4981;50.966;4.842;2022-07-29T12:30:48;161.82;;;149.75;;
9884;SDS011;4981;50.966;4.842;2022-07-29T12:33:17;148.48;;;137.77;;
9884;SDS011;4981;50.966;4.842;2022-07-29T12:35:48;184.90;;;171.63;;
9884;SDS011;4981;50.966;4.842;2022-07-29T12:38:17;151.32;;;140.20;;
9884;SDS011;4981;50.966;4.842;2022-07-29T12:40:45;135.07;;;124.82;;
9884;SDS011;4981;50.966;4.842;2022-07-29T12:43:16;118.25;;;109.78;;
9884;SDS011;4981;50.966;4.842;2022-07-29T12:45:46;145.50;;;135.07;;
9884;SDS011;4981;50.966;4.842;2022-07-29T12:48:15;162.30;;;150.38;;
9884;SDS011;4981;50.966;4.842;2022-07-29T12:50:54;170.32;;;157.93;;
9884;SDS011;4981;50.966;4.842;2022-07-29T12:53:23;145.80;;;134.73;;
9884;SDS011;4981;50.966;4.842;2022-07-29T12:55:51;147.43;;;136.40;;
9884;SDS011;4981;50.966;4.842;2022-07-29T12:58:27;156.35;;;144.57;;
9884;SDS011;4981;50.966;4.842;2022-07-29T13:01:06;194.02;;;180.73;;
9884;SDS011;4981;50.966;4.842;2022-07-29T13:03:43;140.02;;;130.02;;
9884;SDS011;4981;50.966;4.842;2022-07-29T13:06:30;218.70;;;203.55;;
9884;SDS011;4981;50.966;4.842;2022-07-29T13:09:09;145.40;;;134.82;;
9884;SDS011;4981;50.966;4.842;2022-07-29T13:11:39;185.07;;;172.45;;
9884;SDS011;4981;50.966;4.842;2022-07-29T13:14:08;146.85;;;135.80;;
9884;SDS011;4981;50.966;4.842;2022-07-29T13:16:36;171.27;;;158.60;;
9884;SDS011;4981;50.966;4.842;2022-07-29T13:19:32;139.68;;;129.50;;
9884;SDS011;4981;50.966;4.842;2022-07-29T13:22:02;176.98;;;164.10;;
9884;SDS011;4981;50.966;4.842;2022-07-29T13:24:30;147.25;;;136.60;;
9884;SDS011;4981;50.966;4.842;2022-07-29T13:26:57;168.05;;;156.02;;
9884;SDS011;4981;50.966;4.842;2022-07-29T13:29:25;190.20;;;176.70;;
9884;SDS011;4981;50.966;4.842;2022-07-29T13:31:52;161.30;;;149.60;;
9884;SDS011;4981;50.966;4.842;2022-07-29T13:34:20;124.30;;;115.15;;
9884;SDS011;4981;50.966;4.842;2022-07-29T13:36:49;143.25;;;133.05;;
9884;SDS011;4981;50.966;4.842;2022-07-29T13:39:17;174.18;;;161.93;;
9884;SDS011;4981;50.966;4.842;2022-07-29T13:41:45;169.40;;;157.98;;
9884;SDS011;4981;50.966;4.842;2022-07-29T13:44:12;139.20;;;129.13;;
9884;SDS011;4981;50.966;4.842;2022-07-29T13:46:40;206.85;;;192.52;;
9884;SDS011;4981;50.966;4.842;2022-07-29T13:49:07;162.32;;;150.43;;
9884;SDS011;4981;50.966;4.842;2022-07-29T13:51:36;166.43;;;154.18;;
9884;SDS011;4981;50.966;4.842;2022-07-29T13:54:03;232.20;;;217.02;;
9884;SDS011;4981;50.966;4.842;2022-07-29T13:56:32;214.50;;;199.38;;
9884;SDS011;4981;50.966;4.842;2022-07-29T13:59:00;153.68;;;142.32;;
9884;SDS011;4981;50.966;4.842;2022-07-29T14:01:28;142.60;;;132.20;;
9884;SDS011;4981;50.966;4.842;2022-07-29T14:03:55;158.23;;;146.13;;
9884;SDS011;4981;50.966;4.842;2022-07-29T14:06:23;162.32;;;149.70;;
9884;SDS011;4981;50.966;4.842;2022-07-29T14:08:50;137.55;;;126.80;;
9884;SDS011;4981;50.966;4.842;2022-07-29T14:11:17;175.23;;;162.32;;
9884;SDS011;4981;50.966;4.842;2022-07-29T14:13:46;161.50;;;149.55;;
9884;SDS011;4981;50.966;4.842;2022-07-29T14:16:13;100.03;;;91.97;;
9884;SDS011;4981;50.966;4.842;2022-07-29T14:18:41;126.38;;;115.68;;
9884;SDS011;4981;50.966;4.842;2022-07-29T14:21:08;156.50;;;143.05;;
9884;SDS011;4981;50.966;4.842;2022-07-29T14:23:36;60.80;;;54.40;;
9884;SDS011;4981;50.966;4.842;2022-07-29T14:26:03;112.90;;;104.32;;
9884;SDS011;4981;50.966;4.842;2022-07-29T14:28:31;142.45;;;131.98;;
9884;SDS011;4981;50.966;4.842;2022-07-29T14:31:00;155.75;;;144.00;;
9884;SDS011;4981;50.966;4.842;2022-07-29T14:33:27;145.82;;;134.55;;
9884;SDS011;4981;50.966;4.842;2022-07-29T14:35:54;194.52;;;181.02;;
9884;SDS011;4981;50.966;4.842;2022-07-29T14:38:22;148.80;;;138.13;;
9884;SDS011;4981;50.966;4.842;2022-07-29T14:40:49;147.25;;;136.32;;
9884;SDS011;4981;50.966;4.842;2022-07-29T14:43:16;178.90;;;166.80;;
9884;SDS011;4981;50.966;4.842;2022-07-29T14:45:44;143.30;;;133.40;;
9884;SDS011;4981;50.966;4.842;2022-07-29T14:48:13;166.87;;;155.47;;
9884;SDS011;4981;50.966;4.842;2022-07-29T14:50:40;134.73;;;125.47;;
9884;SDS011;4981;50.966;4.842;2022-07-29T14:53:07;145.27;;;134.70;;
9884;SDS011;4981;50.966;4.842;2022-07-29T14:55:37;134.07;;;124.40;;
9884;SDS011;4981;50.966;4.842;2022-07-29T14:58:04;156.80;;;145.70;;
9884;SDS011;4981;50.966;4.842;2022-07-29T15:00:31;145.80;;;135.47;;
9884;SDS011;4981;50.966;4.842;2022-07-29T15:02:59;153.90;;;143.50;;
9884;SDS011;4981;50.966;4.842;2022-07-29T15:05:29;219.38;;;204.48;;
9884;SDS011;4981;50.966;4.842;2022-07-29T15:07:56;116.70;;;107.50;;
9884;SDS011;4981;50.966;4.842;2022-07-29T15:10:24;159.15;;;147.25;;
9884;SDS011;4981;50.966;4.842;2022-07-29T15:12:52;149.13;;;138.18;;
9884;SDS011;4981;50.966;4.842;2022-07-29T15:15:19;203.02;;;187.93;;
9884;SDS011;4981;50.966;4.842;2022-07-29T15:17:46;161.95;;;149.98;;
9884;SDS011;4981;50.966;4.842;2022-07-29T15:20:14;161.10;;;149.97;;